createdAt,value
2017-09-21T00:01:38.736Z,25.45
2017-09-21T00:04:05.503Z,24.83
2017-09-21T00:06:31.847Z,25.48
2017-09-21T00:08:58.215Z,24.83
2017-09-21T00:11:24.300Z,24.55
2017-09-21T00:13:50.365Z,25.10
2017-09-21T00:16:16.406Z,24.80
2017-09-21T00:18:43.159Z,23.60
2017-09-21T00:21:09.202Z,25.60
2017-09-21T00:23:35.219Z,24.23
2017-09-21T00:26:01.236Z,25.35
2017-09-21T00:28:27.318Z,25.40
2017-09-21T00:30:53.350Z,24.83
2017-09-21T00:33:19.413Z,24.65
2017-09-21T00:35:45.440Z,24.90
2017-09-21T00:38:11.466Z,25.53
2017-09-21T00:40:37.496Z,26.50
2017-09-21T00:43:03.571Z,26.02
2017-09-21T00:45:30.359Z,25.67
2017-09-21T00:47:56.399Z,26.67
2017-09-21T00:50:22.485Z,24.67
2017-09-21T00:52:48.498Z,26.42
2017-09-21T00:55:14.530Z,27.10
2017-09-21T00:57:40.591Z,25.90
2017-09-21T01:00:06.619Z,27.08
2017-09-21T01:02:32.673Z,26.87
2017-09-21T01:04:59.469Z,26.35
2017-09-21T01:07:25.501Z,26.92
2017-09-21T01:09:51.520Z,27.55
2017-09-21T01:12:17.915Z,26.87
2017-09-21T01:14:43.970Z,25.42
2017-09-21T01:17:10.011Z,24.95
2017-09-21T01:19:36.287Z,25.10
2017-09-21T01:22:02.309Z,24.60
2017-09-21T01:24:28.331Z,23.17
2017-09-21T01:26:56.073Z,24.77
2017-09-21T01:29:22.849Z,22.83
2017-09-21T01:31:54.971Z,23.62
2017-09-21T01:34:21.947Z,23.80
2017-09-21T01:36:47.995Z,24.20
2017-09-21T01:39:14.039Z,24.63
2017-09-21T01:41:40.109Z,22.83
2017-09-21T01:44:06.151Z,23.65
2017-09-21T01:46:32.161Z,24.70
2017-09-21T01:48:58.222Z,23.60
2017-09-21T01:51:24.266Z,23.17
2017-09-21T01:53:50.306Z,23.10
2017-09-21T01:56:17.367Z,22.50
2017-09-21T01:58:43.383Z,23.27
2017-09-21T02:01:09.402Z,25.98
2017-09-21T02:03:43.324Z,24.25
2017-09-21T02:06:09.356Z,23.03
2017-09-21T02:08:35.415Z,23.40
2017-09-21T02:11:01.454Z,23.23
2017-09-21T02:13:27.475Z,22.33
2017-09-21T02:15:53.786Z,23.45
2017-09-21T02:18:19.823Z,23.50
2017-09-21T02:20:45.863Z,24.08
2017-09-21T02:23:12.674Z,23.90
2017-09-21T02:25:38.710Z,22.35
2017-09-21T02:28:04.726Z,24.20
2017-09-21T02:30:30.786Z,23.33
2017-09-21T02:32:56.810Z,22.80
2017-09-21T02:35:22.837Z,22.70
2017-09-21T02:37:48.864Z,22.80
2017-09-21T02:40:14.886Z,23.90
2017-09-21T02:42:40.899Z,23.80
2017-09-21T02:45:06.947Z,23.52
2017-09-21T02:47:32.963Z,25.00
2017-09-21T02:49:59.038Z,25.52
2017-09-21T02:52:25.074Z,23.33
2017-09-21T02:54:51.838Z,24.45
2017-09-21T02:57:18.087Z,25.37
2017-09-21T02:59:44.094Z,25.25
2017-09-21T03:02:10.474Z,25.52
2017-09-21T03:04:36.849Z,25.70
2017-09-21T03:07:02.873Z,25.27
2017-09-21T03:09:28.902Z,24.12
2017-09-21T03:11:55.223Z,24.80
2017-09-21T03:14:21.255Z,24.77
2017-09-21T03:16:47.278Z,22.95
2017-09-21T03:19:13.358Z,25.37
2017-09-21T03:21:40.135Z,24.73
2017-09-21T03:24:06.153Z,25.43
2017-09-21T03:26:32.206Z,23.23
2017-09-21T03:28:58.216Z,25.73
2017-09-21T03:31:24.270Z,24.45
2017-09-21T03:33:50.315Z,26.70
2017-09-21T03:36:17.091Z,24.50
2017-09-21T03:38:43.106Z,25.70
2017-09-21T03:41:09.138Z,25.88
2017-09-21T03:43:35.158Z,25.50
2017-09-21T03:46:01.186Z,24.92
2017-09-21T03:48:27.562Z,25.83
2017-09-21T03:50:53.586Z,28.10
2017-09-21T03:53:19.626Z,27.67
2017-09-21T03:55:46.409Z,28.00
2017-09-21T03:58:12.449Z,28.33
2017-09-21T04:00:38.495Z,29.37
2017-09-21T04:03:04.578Z,27.52
2017-09-21T04:05:30.600Z,26.15
2017-09-21T04:07:56.636Z,27.98
2017-09-21T04:10:22.705Z,28.00
2017-09-21T04:12:49.472Z,30.30
2017-09-21T04:15:15.499Z,29.07
2017-09-21T04:17:41.545Z,29.67
2017-09-21T04:20:07.570Z,30.40
2017-09-21T04:22:33.596Z,29.35
2017-09-21T04:24:59.899Z,29.80
2017-09-21T04:27:25.929Z,30.23
2017-09-21T04:29:51.943Z,30.92
2017-09-21T04:32:17.982Z,30.77
2017-09-21T04:34:44.002Z,29.27
2017-09-21T04:37:10.022Z,28.33
2017-09-21T04:39:36.095Z,28.05
2017-09-21T04:42:02.871Z,28.17
2017-09-21T04:44:28.884Z,28.87
2017-09-21T04:46:55.115Z,29.85
2017-09-21T04:49:21.140Z,27.55
2017-09-21T04:51:47.162Z,28.77
2017-09-21T04:54:13.202Z,29.50
2017-09-21T04:56:39.247Z,30.15
2017-09-21T04:59:05.307Z,28.30
2017-09-21T05:01:31.348Z,30.25
2017-09-21T05:03:57.374Z,28.55
2017-09-21T05:06:23.458Z,29.60
2017-09-21T05:08:50.224Z,29.05
2017-09-21T05:11:16.245Z,31.37
2017-09-21T05:13:49.362Z,29.85
2017-09-21T05:16:15.383Z,30.70
2017-09-21T05:18:41.401Z,30.58
2017-09-21T05:21:07.722Z,33.50
2017-09-21T05:23:33.742Z,33.00
2017-09-21T05:25:59.758Z,35.08
2017-09-21T05:28:25.814Z,34.40
2017-09-21T05:30:51.883Z,35.42
2017-09-21T05:33:18.642Z,35.23
2017-09-21T05:35:44.864Z,33.80
2017-09-21T05:38:10.882Z,33.50
2017-09-21T05:40:36.931Z,34.90
2017-09-21T05:43:03.136Z,34.93
2017-09-21T05:45:29.150Z,35.53
2017-09-21T05:47:55.969Z,35.30
2017-09-21T05:50:22.334Z,33.88
2017-09-21T05:52:48.356Z,36.10
2017-09-21T05:55:14.383Z,36.97
2017-09-21T05:57:40.432Z,36.13
2017-09-21T06:00:06.483Z,37.33
2017-09-21T06:02:32.504Z,36.15
2017-09-21T06:04:58.556Z,36.92
2017-09-21T06:07:24.570Z,35.05
2017-09-21T06:09:51.335Z,37.17
2017-09-21T06:12:17.768Z,37.08
2017-09-21T06:14:43.827Z,34.80
2017-09-21T06:17:09.843Z,35.35
2017-09-21T06:19:35.866Z,34.95
2017-09-21T06:22:01.882Z,36.17
2017-09-21T06:24:27.906Z,38.05
2017-09-21T06:26:53.943Z,36.60
2017-09-21T06:29:19.964Z,36.88
2017-09-21T06:31:46.026Z,35.97
2017-09-21T06:34:12.250Z,37.47
2017-09-21T06:36:39.010Z,36.20
2017-09-21T06:39:05.035Z,38.17
2017-09-21T06:41:31.256Z,37.50
2017-09-21T06:43:57.307Z,39.83
2017-09-21T06:46:23.335Z,39.88
2017-09-21T06:48:49.635Z,36.65
2017-09-21T06:51:15.657Z,36.72
2017-09-21T06:53:41.699Z,37.35
2017-09-21T06:56:08.107Z,37.80
2017-09-21T06:58:34.138Z,37.92
2017-09-21T07:01:00.158Z,37.15
2017-09-21T07:03:26.250Z,36.80
2017-09-21T07:05:53.036Z,38.05
2017-09-21T07:08:19.098Z,37.53
2017-09-21T07:10:45.180Z,38.78
2017-09-21T07:13:11.226Z,39.55
2017-09-21T07:15:37.424Z,37.80
2017-09-21T07:18:03.442Z,37.15
2017-09-21T07:20:29.466Z,38.38
2017-09-21T07:22:55.564Z,37.95
2017-09-21T07:25:22.347Z,38.50
2017-09-21T07:27:48.368Z,36.97
2017-09-21T07:30:14.414Z,37.17
2017-09-21T07:32:40.443Z,39.95
2017-09-21T07:35:07.955Z,39.92
2017-09-21T07:37:34.011Z,38.70
2017-09-21T07:40:07.143Z,37.50
2017-09-21T07:42:33.159Z,38.78
2017-09-21T07:45:00.130Z,38.70
2017-09-21T07:47:26.171Z,39.65
2017-09-21T07:49:52.212Z,36.78
2017-09-21T07:52:18.264Z,40.08
2017-09-21T07:54:45.039Z,39.58
2017-09-21T07:57:11.063Z,37.20
2017-09-21T07:59:37.118Z,39.17
2017-09-21T08:02:03.142Z,38.10
2017-09-21T08:04:29.162Z,38.40
2017-09-21T08:06:55.352Z,37.78
2017-09-21T08:09:21.383Z,36.50
2017-09-21T08:11:47.390Z,35.70
2017-09-21T08:14:13.447Z,35.85
2017-09-21T08:16:39.465Z,36.17
2017-09-21T08:19:05.489Z,37.50
2017-09-21T08:21:31.511Z,37.37
2017-09-21T08:23:57.534Z,35.25
2017-09-21T08:26:23.938Z,33.33
2017-09-21T08:28:49.955Z,35.70
2017-09-21T08:31:15.988Z,37.90
2017-09-21T08:33:42.055Z,34.90
2017-09-21T08:36:08.084Z,35.88
2017-09-21T08:38:34.099Z,36.30
2017-09-21T08:41:00.183Z,36.40
2017-09-21T08:43:26.210Z,35.65
2017-09-21T08:45:52.242Z,38.10
2017-09-21T08:48:18.451Z,36.75
2017-09-21T08:50:44.466Z,36.47
2017-09-21T08:53:10.503Z,34.63
2017-09-21T08:55:36.549Z,36.10
2017-09-21T08:58:02.572Z,34.42
2017-09-21T09:00:28.588Z,34.30
2017-09-21T09:02:54.930Z,32.13
2017-09-21T09:05:21.735Z,31.20
2017-09-21T09:07:47.780Z,31.50
2017-09-21T09:10:20.831Z,30.60
2017-09-21T09:12:46.855Z,30.95
2017-09-21T09:15:12.886Z,31.60
2017-09-21T09:17:38.932Z,30.37
2017-09-21T09:20:04.967Z,36.38
2017-09-21T09:22:30.991Z,49.25
2017-09-21T09:24:57.275Z,32.53
2017-09-21T09:27:23.333Z,33.70
2017-09-21T09:29:49.345Z,30.58
2017-09-21T09:32:15.416Z,30.77
2017-09-21T09:34:42.199Z,29.15
2017-09-21T09:37:08.207Z,27.60
2017-09-21T09:39:34.251Z,26.35
2017-09-21T09:42:00.262Z,25.50
2017-09-21T09:44:26.282Z,25.10
2017-09-21T09:46:52.291Z,27.80
2017-09-21T09:49:18.308Z,28.45
2017-09-21T09:51:44.547Z,28.83
2017-09-21T09:54:10.569Z,28.35
2017-09-21T09:56:36.659Z,28.50
2017-09-21T09:59:03.454Z,28.00
2017-09-21T10:01:29.463Z,28.40
2017-09-21T10:03:55.487Z,28.92
2017-09-21T10:06:28.603Z,27.80
2017-09-21T10:08:54.611Z,28.52
2017-09-21T10:11:20.623Z,27.57
2017-09-21T10:13:46.654Z,25.90
2017-09-21T10:16:12.671Z,29.50
2017-09-21T10:18:38.686Z,28.58
2017-09-21T10:21:05.107Z,27.30
2017-09-21T10:23:31.106Z,27.47
2017-09-21T10:25:57.870Z,27.42
2017-09-21T10:28:24.300Z,26.65
2017-09-21T10:30:50.323Z,27.13
2017-09-21T10:33:16.368Z,26.55
2017-09-21T10:35:42.399Z,27.23
2017-09-21T10:38:08.407Z,26.95
2017-09-21T10:40:34.426Z,24.67
2017-09-21T10:43:00.756Z,24.23
2017-09-21T10:45:26.767Z,25.70
2017-09-21T10:47:52.787Z,23.90
2017-09-21T10:50:18.840Z,25.50
2017-09-21T10:52:44.880Z,25.17
2017-09-21T10:55:10.894Z,26.37
2017-09-21T10:57:37.078Z,25.83
2017-09-21T11:00:03.107Z,24.57
2017-09-21T11:02:29.118Z,23.08
2017-09-21T11:04:55.142Z,21.57
2017-09-21T11:07:21.176Z,22.37
2017-09-21T11:09:47.195Z,20.50
2017-09-21T11:12:13.518Z,22.70
2017-09-21T11:14:39.547Z,23.40
2017-09-21T11:17:05.586Z,17.92
2017-09-21T11:19:31.616Z,13.77
2017-09-21T11:21:57.671Z,14.60
2017-09-21T11:24:24.480Z,12.63
2017-09-21T11:26:50.785Z,15.50
2017-09-21T11:29:16.808Z,14.30
2017-09-21T11:31:42.837Z,11.55
2017-09-21T11:34:09.046Z,11.80
2017-09-21T11:36:35.081Z,13.10
2017-09-21T11:39:01.114Z,14.15
2017-09-21T11:41:27.530Z,13.30
2017-09-21T11:43:53.559Z,13.30
2017-09-21T11:46:19.584Z,14.45
2017-09-21T11:48:45.831Z,13.52
2017-09-21T11:51:11.860Z,12.98
2017-09-21T11:53:37.889Z,11.63
2017-09-21T11:56:04.738Z,10.93
2017-09-21T11:58:31.019Z,12.25
2017-09-21T12:00:57.067Z,12.75
2017-09-21T12:03:23.120Z,12.63
2017-09-21T12:05:50.518Z,12.43
2017-09-21T12:08:16.530Z,14.27
2017-09-21T12:10:42.542Z,12.50
2017-09-21T12:13:08.806Z,11.88
2017-09-21T12:15:34.853Z,13.35
2017-09-21T12:18:00.921Z,15.27
2017-09-21T12:20:27.682Z,15.95
2017-09-21T12:22:53.731Z,15.20
2017-09-21T12:25:19.771Z,14.43
2017-09-21T12:27:45.836Z,13.90
2017-09-21T12:30:11.856Z,14.13
2017-09-21T12:32:37.879Z,11.85
2017-09-21T12:35:03.900Z,12.17
2017-09-21T12:37:29.930Z,11.93
2017-09-21T12:39:55.947Z,12.63
2017-09-21T12:42:22.093Z,12.10
2017-09-21T12:44:48.138Z,11.90
2017-09-21T12:47:14.151Z,10.82
2017-09-21T12:49:40.179Z,10.40
2017-09-21T12:52:06.211Z,10.20
2017-09-21T12:54:32.227Z,12.90
2017-09-21T12:56:58.283Z,11.48
2017-09-21T12:59:25.047Z,11.70
2017-09-21T13:01:51.070Z,9.85
2017-09-21T13:04:17.294Z,9.38
2017-09-21T13:06:43.319Z,11.12
2017-09-21T13:09:09.337Z,11.80
2017-09-21T13:11:35.584Z,11.85
2017-09-21T13:14:01.602Z,11.30
2017-09-21T13:16:27.619Z,9.55
2017-09-21T13:18:53.639Z,8.20
2017-09-21T13:21:19.778Z,9.05
2017-09-21T13:23:45.799Z,9.03
2017-09-21T13:26:11.819Z,8.82
2017-09-21T13:28:37.875Z,9.37
2017-09-21T13:31:03.903Z,9.50
2017-09-21T13:33:29.935Z,9.77
2017-09-21T13:35:56.914Z,10.00
2017-09-21T13:38:22.922Z,13.30
2017-09-21T13:40:48.982Z,12.35
2017-09-21T13:43:15.277Z,15.00
2017-09-21T13:45:41.298Z,14.82
2017-09-21T13:48:07.313Z,13.65
2017-09-21T13:50:34.104Z,13.50
2017-09-21T13:53:00.114Z,13.38
2017-09-21T13:55:26.151Z,15.38
2017-09-21T13:57:52.340Z,14.10
2017-09-21T14:00:18.363Z,13.68
2017-09-21T14:02:44.380Z,14.00
2017-09-21T14:05:10.602Z,15.60
2017-09-21T14:07:36.619Z,14.13
2017-09-21T14:10:03.374Z,11.90
2017-09-21T14:12:29.591Z,13.80
2017-09-21T14:14:55.608Z,13.30
2017-09-21T14:17:21.631Z,13.40
2017-09-21T14:19:47.701Z,14.00
2017-09-21T14:22:13.726Z,13.70
2017-09-21T14:24:39.762Z,11.65
2017-09-21T14:27:06.247Z,12.30
2017-09-21T14:29:32.270Z,14.40
2017-09-21T14:31:58.291Z,12.60
2017-09-21T14:34:24.346Z,14.10
2017-09-21T14:36:50.412Z,13.60
2017-09-21T14:39:17.187Z,12.60
2017-09-21T14:41:43.214Z,10.90
2017-09-21T14:44:09.317Z,10.00
2017-09-21T14:46:35.355Z,11.43
2017-09-21T14:49:01.571Z,11.57
2017-09-21T14:51:27.599Z,13.25
2017-09-21T14:53:53.609Z,13.68
2017-09-21T14:56:19.887Z,12.10
2017-09-21T14:58:52.994Z,12.40
2017-09-21T15:01:19.156Z,12.18
2017-09-21T15:03:45.179Z,13.10
2017-09-21T15:06:11.215Z,11.98
2017-09-21T15:08:37.247Z,11.60
2017-09-21T15:11:03.262Z,11.25
2017-09-21T15:13:29.274Z,9.55
2017-09-21T15:15:55.294Z,8.88
2017-09-21T15:18:21.302Z,9.40
2017-09-21T15:20:47.307Z,8.80
2017-09-21T15:23:14.079Z,7.70
2017-09-21T15:25:40.102Z,8.77
2017-09-21T15:28:06.116Z,8.70
2017-09-21T15:30:32.179Z,8.48
2017-09-21T15:32:58.218Z,8.25
2017-09-21T15:35:24.239Z,8.25
2017-09-21T15:37:50.614Z,7.78
2017-09-21T15:40:16.639Z,7.40
2017-09-21T15:42:42.646Z,7.10
2017-09-21T15:45:08.886Z,7.30
2017-09-21T15:47:34.899Z,7.30
2017-09-21T15:50:00.922Z,7.93
2017-09-21T15:52:26.954Z,7.25
2017-09-21T15:54:52.983Z,7.00
2017-09-21T15:57:18.997Z,6.70
2017-09-21T15:59:45.331Z,7.40
2017-09-21T16:02:11.359Z,7.25
2017-09-21T16:04:37.378Z,7.47
2017-09-21T16:07:03.410Z,7.00
2017-09-21T16:09:29.423Z,7.00
2017-09-21T16:11:55.467Z,7.20
2017-09-21T16:14:22.239Z,7.10
2017-09-21T16:16:48.271Z,7.10
2017-09-21T16:19:15.063Z,7.75
2017-09-21T16:21:41.071Z,7.37
2017-09-21T16:24:07.110Z,7.00
2017-09-21T16:26:33.206Z,7.03
2017-09-21T16:28:59.229Z,7.40
2017-09-21T16:31:25.242Z,7.00
2017-09-21T16:33:51.585Z,7.20
2017-09-21T16:36:17.618Z,7.50
2017-09-21T16:38:43.657Z,9.20
2017-09-21T16:41:09.727Z,8.88
2017-09-21T16:43:36.508Z,8.40
2017-09-21T16:46:02.790Z,7.87
2017-09-21T16:48:29.561Z,8.60
2017-09-21T16:50:55.890Z,8.53
2017-09-21T16:53:21.915Z,8.60
2017-09-21T16:55:47.930Z,9.55
2017-09-21T16:58:14.234Z,10.30
2017-09-21T17:00:41.011Z,10.25
2017-09-21T17:03:07.035Z,9.40
2017-09-21T17:05:33.249Z,9.90
2017-09-21T17:07:59.267Z,8.40
2017-09-21T17:10:25.298Z,9.30
2017-09-21T17:12:51.526Z,9.43
2017-09-21T17:15:17.557Z,10.10
2017-09-21T17:17:43.604Z,12.35
2017-09-21T17:20:09.807Z,12.00
2017-09-21T17:22:35.832Z,12.10
2017-09-21T17:25:01.855Z,12.50
2017-09-21T17:27:28.031Z,13.40
2017-09-21T17:29:54.089Z,12.90
2017-09-21T17:32:20.119Z,13.02
2017-09-21T17:34:46.347Z,12.80
2017-09-21T17:37:12.367Z,13.37
2017-09-21T17:39:38.388Z,13.20
2017-09-21T17:42:04.439Z,13.25
2017-09-21T17:44:30.460Z,13.90
2017-09-21T17:46:56.757Z,12.70
2017-09-21T17:49:22.813Z,13.73
2017-09-21T17:51:48.830Z,14.85
2017-09-21T17:54:14.839Z,13.70
2017-09-21T17:56:40.892Z,14.50
2017-09-21T17:59:06.915Z,13.30
2017-09-21T18:01:32.983Z,13.20
2017-09-21T18:03:59.282Z,12.68
2017-09-21T18:06:25.307Z,13.30
2017-09-21T18:08:51.351Z,12.80
2017-09-21T18:11:18.135Z,13.67
2017-09-21T18:13:44.146Z,13.93
2017-09-21T18:16:10.175Z,13.93
2017-09-21T18:18:36.199Z,14.20
2017-09-21T18:21:02.305Z,14.35
2017-09-21T18:23:28.408Z,13.35
2017-09-21T18:25:54.517Z,13.80
2017-09-21T18:28:21.336Z,14.00
2017-09-21T18:30:48.900Z,14.23
2017-09-21T18:33:15.011Z,15.25
2017-09-21T18:35:41.116Z,14.90
2017-09-21T18:38:07.197Z,14.23
2017-09-21T18:40:34.247Z,14.77
2017-09-21T18:43:00.346Z,14.50
2017-09-21T18:45:27.209Z,15.30
2017-09-21T18:47:54.114Z,15.45
2017-09-21T18:50:20.973Z,16.20
2017-09-21T18:52:47.766Z,16.45
2017-09-21T18:55:13.886Z,17.10
2017-09-21T18:57:39.973Z,17.60
2017-09-21T19:00:06.034Z,16.45
2017-09-21T19:02:32.171Z,15.63
2017-09-21T19:04:58.272Z,15.15
2017-09-21T19:07:24.377Z,15.25
2017-09-21T19:09:51.335Z,16.92
2017-09-21T19:12:17.394Z,16.77
2017-09-21T19:14:43.516Z,16.55
2017-09-21T19:17:09.689Z,16.37
2017-09-21T19:19:36.638Z,16.92
2017-09-21T19:22:03.515Z,16.00
2017-09-21T19:24:29.562Z,16.12
2017-09-21T19:26:55.704Z,17.17
2017-09-21T19:29:22.551Z,17.42
2017-09-21T19:31:49.405Z,17.45
2017-09-21T19:34:16.310Z,16.98
2017-09-21T19:36:42.398Z,17.58
2017-09-21T19:39:08.487Z,16.67
2017-09-21T19:41:35.405Z,15.73
2017-09-21T19:44:01.504Z,15.93
2017-09-21T19:46:27.605Z,16.90
2017-09-21T19:48:53.727Z,16.42
2017-09-21T19:51:19.819Z,16.90
2017-09-21T19:53:45.918Z,17.42
2017-09-21T19:56:12.291Z,18.25
2017-09-21T19:58:39.142Z,17.58
2017-09-21T20:01:06.546Z,17.47
2017-09-21T20:03:32.891Z,17.70
2017-09-21T20:05:58.926Z,16.90
2017-09-21T20:08:24.977Z,17.30
2017-09-21T20:10:51.853Z,17.80
2017-09-21T20:13:17.876Z,17.00
2017-09-21T20:15:43.957Z,18.60
2017-09-21T20:18:10.723Z,18.20
2017-09-21T20:20:36.756Z,18.25
2017-09-21T20:23:02.797Z,18.35
2017-09-21T20:25:28.832Z,19.62
2017-09-21T20:27:54.860Z,18.77
2017-09-21T20:30:20.910Z,19.58
2017-09-21T20:32:47.676Z,18.95
2017-09-21T20:35:13.710Z,17.67
2017-09-21T20:37:39.924Z,19.27
2017-09-21T20:40:05.948Z,20.65
2017-09-21T20:42:32.010Z,21.37
2017-09-21T20:44:58.067Z,21.40
2017-09-21T20:47:24.824Z,20.05
2017-09-21T20:49:50.874Z,21.00
2017-09-21T20:52:16.950Z,19.37
2017-09-21T20:54:43.716Z,20.83
2017-09-21T20:57:09.739Z,20.77
2017-09-21T20:59:35.757Z,20.00
2017-09-21T21:02:01.805Z,19.87
2017-09-21T21:04:28.130Z,20.87
2017-09-21T21:06:54.155Z,20.65
2017-09-21T21:09:20.166Z,19.50
2017-09-21T21:11:46.503Z,20.42
2017-09-21T21:14:12.547Z,20.40
2017-09-21T21:16:38.663Z,19.90
2017-09-21T21:19:04.699Z,20.52
2017-09-21T21:21:30.766Z,20.58
2017-09-21T21:23:56.805Z,21.30
2017-09-21T21:26:23.043Z,20.30
2017-09-21T21:28:49.063Z,21.40
2017-09-21T21:31:15.106Z,19.92
2017-09-21T21:33:41.174Z,19.60
2017-09-21T21:36:07.963Z,19.85
2017-09-21T21:38:33.997Z,21.95
2017-09-21T21:41:00.063Z,20.65
2017-09-21T21:43:26.815Z,21.75
2017-09-21T21:45:52.856Z,21.67
2017-09-21T21:48:18.915Z,22.35
2017-09-21T21:50:44.955Z,23.30
2017-09-21T21:53:10.957Z,23.70
2017-09-21T21:55:36.970Z,21.60
2017-09-21T21:58:03.006Z,20.90
2017-09-21T22:00:29.039Z,23.25
2017-09-21T22:02:55.063Z,22.23
2017-09-21T22:05:21.342Z,21.70
2017-09-21T22:07:47.364Z,22.20
2017-09-21T22:10:13.386Z,21.65
2017-09-21T22:12:39.407Z,21.97
2017-09-21T22:15:05.459Z,21.50
2017-09-21T22:17:31.531Z,22.87
2017-09-21T22:19:58.286Z,22.13
2017-09-21T22:22:24.326Z,23.45
2017-09-21T22:24:50.541Z,22.37
2017-09-21T22:27:16.569Z,23.52
2017-09-21T22:29:42.611Z,24.15
2017-09-21T22:32:08.640Z,23.75
2017-09-21T22:34:34.711Z,24.02
2017-09-21T22:37:00.718Z,23.30
2017-09-21T22:39:27.499Z,24.77
2017-09-21T22:41:53.556Z,23.33
2017-09-21T22:44:19.585Z,24.45
2017-09-21T22:46:45.606Z,24.27
2017-09-21T22:49:11.666Z,23.52
2017-09-21T22:51:37.686Z,23.33
2017-09-21T22:54:04.448Z,23.62
2017-09-21T22:56:30.547Z,24.25
2017-09-21T22:58:57.310Z,24.00
2017-09-21T23:01:23.343Z,22.30
2017-09-21T23:03:49.566Z,22.83
2017-09-21T23:06:15.586Z,22.50
2017-09-21T23:08:41.663Z,22.52
2017-09-21T23:11:08.154Z,23.97
2017-09-21T23:13:41.167Z,22.55
2017-09-21T23:16:07.452Z,22.40
2017-09-21T23:18:33.469Z,24.27
2017-09-21T23:20:59.507Z,22.30
2017-09-21T23:23:25.554Z,22.80
2017-09-21T23:25:51.571Z,22.15
2017-09-21T23:28:17.614Z,21.60
2017-09-21T23:30:43.642Z,23.95
2017-09-21T23:33:09.667Z,23.10
2017-09-21T23:35:35.698Z,24.37
2017-09-21T23:38:02.450Z,23.95
2017-09-21T23:40:29.226Z,24.98
2017-09-21T23:42:55.264Z,24.67
2017-09-21T23:45:21.290Z,25.25
2017-09-21T23:47:47.309Z,23.23
2017-09-21T23:50:13.622Z,23.65
2017-09-21T23:52:39.638Z,24.00
2017-09-21T23:55:07.171Z,26.00
2017-09-21T23:57:33.229Z,22.98
2017-09-21T23:59:59.293Z,23.52
